sensor_id;sensor_type;location;lat;lon;timestamp;pressure;altitude;pressure_sealevel;temperature;humidity
77323;BME280;66384;51.052;9.850;2023-06-26T00:00:12;98557.23;;;19.40;60.79
77323;BME280;66384;51.052;9.850;2023-06-26T00:03:04;98560.23;;;19.34;60.83
77323;BME280;66384;51.052;9.850;2023-06-26T00:05:35;98560.15;;;19.27;61.06
77323;BME280;66384;51.052;9.850;2023-06-26T00:08:07;98564.39;;;19.22;61.23
77323;BME280;66384;51.052;9.850;2023-06-26T00:10:39;98561.85;;;19.14;61.40
77323;BME280;66384;51.052;9.850;2023-06-26T00:13:11;98556.82;;;19.10;61.55
77323;BME280;66384;51.052;9.850;2023-06-26T00:15:43;98559.98;;;19.08;61.61
77323;BME280;66384;51.052;9.850;2023-06-26T00:18:14;98557.60;;;19.04;61.53
77323;BME280;66384;51.052;9.850;2023-06-26T00:20:46;98558.31;;;19.02;61.78
77323;BME280;66384;51.052;9.850;2023-06-26T00:23:18;98560.10;;;18.98;61.79
77323;BME280;66384;51.052;9.850;2023-06-26T00:25:50;98559.41;;;18.96;61.94
77323;BME280;66384;51.052;9.850;2023-06-26T00:28:22;98555.06;;;18.96;62.15
77323;BME280;66384;51.052;9.850;2023-06-26T00:30:53;98553.51;;;18.95;62.18
77323;BME280;66384;51.052;9.850;2023-06-26T00:33:25;98550.73;;;18.94;62.25
77323;BME280;66384;51.052;9.850;2023-06-26T00:35:57;98553.00;;;18.93;62.30
77323;BME280;66384;51.052;9.850;2023-06-26T00:38:28;98553.56;;;18.88;62.01
77323;BME280;66384;51.052;9.850;2023-06-26T00:41:00;98553.92;;;18.86;62.01
77323;BME280;66384;51.052;9.850;2023-06-26T00:43:32;98551.66;;;18.88;61.98
77323;BME280;66384;51.052;9.850;2023-06-26T00:46:04;98550.96;;;18.88;61.81
77323;BME280;66384;51.052;9.850;2023-06-26T00:48:36;98554.61;;;18.89;61.88
77323;BME280;66384;51.052;9.850;2023-06-26T00:51:08;98544.50;;;18.89;61.80
77323;BME280;66384;51.052;9.850;2023-06-26T00:53:40;98547.30;;;18.90;61.91
77323;BME280;66384;51.052;9.850;2023-06-26T00:56:12;98547.81;;;18.89;62.05
77323;BME280;66384;51.052;9.850;2023-06-26T00:58:45;98549.59;;;18.85;61.85
77323;BME280;66384;51.052;9.850;2023-06-26T01:01:17;98542.45;;;18.84;61.86
77323;BME280;66384;51.052;9.850;2023-06-26T01:03:51;98537.38;;;18.86;61.83
77323;BME280;66384;51.052;9.850;2023-06-26T01:06:25;98537.89;;;18.89;61.72
77323;BME280;66384;51.052;9.850;2023-06-26T01:09:00;98538.05;;;18.89;61.64
77323;BME280;66384;51.052;9.850;2023-06-26T01:11:32;98541.18;;;18.91;61.44
77323;BME280;66384;51.052;9.850;2023-06-26T01:14:04;98535.77;;;18.91;61.41
77323;BME280;66384;51.052;9.850;2023-06-26T01:16:36;98535.27;;;18.90;61.40
77323;BME280;66384;51.052;9.850;2023-06-26T01:19:13;98532.66;;;18.88;61.38
77323;BME280;66384;51.052;9.850;2023-06-26T01:21:58;98537.45;;;18.77;61.37
77323;BME280;66384;51.052;9.850;2023-06-26T01:24:35;98532.12;;;18.69;61.52
77323;BME280;66384;51.052;9.850;2023-06-26T01:27:09;98535.30;;;18.62;61.60
77323;BME280;66384;51.052;9.850;2023-06-26T01:29:42;98529.99;;;18.52;61.71
77323;BME280;66384;51.052;9.850;2023-06-26T01:32:14;98529.23;;;18.40;61.86
77323;BME280;66384;51.052;9.850;2023-06-26T01:34:46;98525.10;;;18.32;62.07
77323;BME280;66384;51.052;9.850;2023-06-26T01:37:18;98524.09;;;18.27;61.99
77323;BME280;66384;51.052;9.850;2023-06-26T01:39:50;98519.77;;;18.24;62.14
77323;BME280;66384;51.052;9.850;2023-06-26T01:42:21;98519.42;;;18.22;62.33
77323;BME280;66384;51.052;9.850;2023-06-26T01:44:55;98516.84;;;18.20;62.48
77323;BME280;66384;51.052;9.850;2023-06-26T01:47:30;98514.59;;;18.17;62.42
77323;BME280;66384;51.052;9.850;2023-06-26T01:50:08;98512.88;;;18.15;62.46
77323;BME280;66384;51.052;9.850;2023-06-26T01:52:42;98511.72;;;18.06;62.48
77323;BME280;66384;51.052;9.850;2023-06-26T01:55:21;98513.69;;;17.98;62.66
77323;BME280;66384;51.052;9.850;2023-06-26T01:57:56;98511.46;;;17.91;62.87
77323;BME280;66384;51.052;9.850;2023-06-26T02:00:30;98512.73;;;17.83;62.93
77323;BME280;66384;51.052;9.850;2023-06-26T02:03:02;98512.21;;;17.77;63.11
77323;BME280;66384;51.052;9.850;2023-06-26T02:05:35;98510.30;;;17.76;63.19
77323;BME280;66384;51.052;9.850;2023-06-26T02:08:07;98510.85;;;17.78;63.29
77323;BME280;66384;51.052;9.850;2023-06-26T02:10:39;98508.73;;;17.75;63.35
77323;BME280;66384;51.052;9.850;2023-06-26T02:13:11;98506.31;;;17.73;63.39
77323;BME280;66384;51.052;9.850;2023-06-26T02:15:43;98506.13;;;17.75;63.47
77323;BME280;66384;51.052;9.850;2023-06-26T02:18:14;98501.79;;;17.74;63.37
77323;BME280;66384;51.052;9.850;2023-06-26T02:20:46;98508.40;;;17.75;63.52
77323;BME280;66384;51.052;9.850;2023-06-26T02:23:17;98501.29;;;17.72;63.62
77323;BME280;66384;51.052;9.850;2023-06-26T02:25:49;98498.34;;;17.68;63.36
77323;BME280;66384;51.052;9.850;2023-06-26T02:28:21;98501.52;;;17.61;63.46
77323;BME280;66384;51.052;9.850;2023-06-26T02:30:52;98500.14;;;17.56;63.40
77323;BME280;66384;51.052;9.850;2023-06-26T02:33:24;98496.49;;;17.57;63.48
77323;BME280;66384;51.052;9.850;2023-06-26T02:35:55;98501.34;;;17.60;63.45
77323;BME280;66384;51.052;9.850;2023-06-26T02:38:27;98503.07;;;17.63;63.32
77323;BME280;66384;51.052;9.850;2023-06-26T02:40:58;98505.00;;;17.61;63.27
77323;BME280;66384;51.052;9.850;2023-06-26T02:43:30;98500.30;;;17.61;63.25
77323;BME280;66384;51.052;9.850;2023-06-26T02:46:01;98498.55;;;17.62;63.15
77323;BME280;66384;51.052;9.850;2023-06-26T02:48:33;98496.83;;;17.58;63.08
77323;BME280;66384;51.052;9.850;2023-06-26T02:51:05;98498.61;;;17.50;63.18
77323;BME280;66384;51.052;9.850;2023-06-26T02:53:37;98497.91;;;17.49;63.29
77323;BME280;66384;51.052;9.850;2023-06-26T02:56:08;98495.46;;;17.53;63.30
77323;BME280;66384;51.052;9.850;2023-06-26T02:58:40;98493.02;;;17.57;63.28
77323;BME280;66384;51.052;9.850;2023-06-26T03:01:11;98490.56;;;17.60;63.08
77323;BME280;66384;51.052;9.850;2023-06-26T03:03:47;98489.52;;;17.60;63.10
77323;BME280;66384;51.052;9.850;2023-06-26T03:06:18;98493.89;;;17.55;62.94
77323;BME280;66384;51.052;9.850;2023-06-26T03:08:51;98496.88;;;17.49;62.90
77323;BME280;66384;51.052;9.850;2023-06-26T03:11:23;98493.25;;;17.43;62.96
77323;BME280;66384;51.052;9.850;2023-06-26T03:13:54;98494.49;;;17.38;62.94
77323;BME280;66384;51.052;9.850;2023-06-26T03:16:26;98491.20;;;17.33;63.13
77323;BME280;66384;51.052;9.850;2023-06-26T03:18:58;98489.11;;;17.33;63.25
77323;BME280;66384;51.052;9.850;2023-06-26T03:21:29;98484.42;;;17.34;63.22
77323;BME280;66384;51.052;9.850;2023-06-26T03:24:01;98485.98;;;17.37;63.31
77323;BME280;66384;51.052;9.850;2023-06-26T03:26:33;98487.71;;;17.36;63.00
77323;BME280;66384;51.052;9.850;2023-06-26T03:29:05;98487.59;;;17.26;62.86
77323;BME280;66384;51.052;9.850;2023-06-26T03:31:36;98489.72;;;17.14;63.18
77323;BME280;66384;51.052;9.850;2023-06-26T03:34:08;98491.30;;;17.07;63.36
77323;BME280;66384;51.052;9.850;2023-06-26T03:36:40;98487.48;;;17.04;63.55
77323;BME280;66384;51.052;9.850;2023-06-26T03:39:11;98489.06;;;17.04;63.71
77323;BME280;66384;51.052;9.850;2023-06-26T03:41:43;98487.66;;;17.06;63.70
77323;BME280;66384;51.052;9.850;2023-06-26T03:44:14;98488.70;;;17.07;63.73
77323;BME280;66384;51.052;9.850;2023-06-26T03:46:47;98478.79;;;17.10;63.74
77323;BME280;66384;51.052;9.850;2023-06-26T03:49:18;98480.34;;;17.14;63.77
77323;BME280;66384;51.052;9.850;2023-06-26T03:51:50;98481.35;;;17.20;63.85
77323;BME280;66384;51.052;9.850;2023-06-26T03:54:22;98481.17;;;17.22;63.82
77323;BME280;66384;51.052;9.850;2023-06-26T03:56:53;98477.88;;;17.21;63.53
77323;BME280;66384;51.052;9.850;2023-06-26T03:59:25;98477.17;;;17.20;63.55
77323;BME280;66384;51.052;9.850;2023-06-26T04:01:56;98474.74;;;17.20;63.63
77323;BME280;66384;51.052;9.850;2023-06-26T04:04:29;98469.88;;;17.21;63.67
77323;BME280;66384;51.052;9.850;2023-06-26T04:07:01;98470.91;;;17.22;63.71
77323;BME280;66384;51.052;9.850;2023-06-26T04:09:32;98470.05;;;17.25;63.83
77323;BME280;66384;51.052;9.850;2023-06-26T04:12:05;98468.13;;;17.26;63.81
77323;BME280;66384;51.052;9.850;2023-06-26T04:14:37;98468.47;;;17.27;64.11
77323;BME280;66384;51.052;9.850;2023-06-26T04:17:09;98469.33;;;17.28;63.96
77323;BME280;66384;51.052;9.850;2023-06-26T04:19:41;98470.02;;;17.30;64.11
77323;BME280;66384;51.052;9.850;2023-06-26T04:22:12;98465.31;;;17.34;64.16
77323;BME280;66384;51.052;9.850;2023-06-26T04:24:44;98467.89;;;17.38;64.32
77323;BME280;66384;51.052;9.850;2023-06-26T04:27:16;98469.77;;;17.42;64.32
77323;BME280;66384;51.052;9.850;2023-06-26T04:29:48;98472.88;;;17.48;64.42
77323;BME280;66384;51.052;9.850;2023-06-26T04:32:19;98473.40;;;17.51;64.43
77323;BME280;66384;51.052;9.850;2023-06-26T04:34:51;98472.86;;;17.54;64.63
77323;BME280;66384;51.052;9.850;2023-06-26T04:37:23;98475.47;;;17.54;64.78
77323;BME280;66384;51.052;9.850;2023-06-26T04:39:54;98477.36;;;17.56;64.93
77323;BME280;66384;51.052;9.850;2023-06-26T04:42:26;98474.58;;;17.57;65.12
77323;BME280;66384;51.052;9.850;2023-06-26T04:44:57;98474.91;;;17.60;65.18
77323;BME280;66384;51.052;9.850;2023-06-26T04:47:29;98474.71;;;17.64;65.18
77323;BME280;66384;51.052;9.850;2023-06-26T04:50:01;98475.71;;;17.70;65.30
77323;BME280;66384;51.052;9.850;2023-06-26T04:52:32;98471.70;;;17.76;65.38
77323;BME280;66384;51.052;9.850;2023-06-26T04:55:05;98470.45;;;17.85;65.38
77323;BME280;66384;51.052;9.850;2023-06-26T04:57:36;98469.17;;;17.93;65.29
77323;BME280;66384;51.052;9.850;2023-06-26T05:00:10;98468.06;;;18.01;65.19
77323;BME280;66384;51.052;9.850;2023-06-26T05:02:42;98465.56;;;18.09;65.05
77323;BME280;66384;51.052;9.850;2023-06-26T05:05:14;98463.25;;;18.16;65.04
77323;BME280;66384;51.052;9.850;2023-06-26T05:07:45;98464.23;;;18.24;64.99
77323;BME280;66384;51.052;9.850;2023-06-26T05:10:17;98466.09;;;18.32;65.04
77323;BME280;66384;51.052;9.850;2023-06-26T05:12:48;98460.45;;;18.39;64.92
77323;BME280;66384;51.052;9.850;2023-06-26T05:15:20;98459.88;;;18.44;64.94
77323;BME280;66384;51.052;9.850;2023-06-26T05:17:51;98458.96;;;18.49;65.06
77323;BME280;66384;51.052;9.850;2023-06-26T05:20:23;98453.85;;;18.55;65.04
77323;BME280;66384;51.052;9.850;2023-06-26T05:22:55;98454.32;;;18.62;65.14
77323;BME280;66384;51.052;9.850;2023-06-26T05:25:27;98453.02;;;18.69;65.28
77323;BME280;66384;51.052;9.850;2023-06-26T05:28:01;98456.09;;;18.79;65.22
77323;BME280;66384;51.052;9.850;2023-06-26T05:30:36;98453.88;;;18.90;65.09
77323;BME280;66384;51.052;9.850;2023-06-26T05:33:10;98450.11;;;19.00;65.03
77323;BME280;66384;51.052;9.850;2023-06-26T05:35:42;98444.92;;;19.09;64.86
77323;BME280;66384;51.052;9.850;2023-06-26T05:38:15;98442.38;;;19.19;64.75
77323;BME280;66384;51.052;9.850;2023-06-26T05:40:48;98441.40;;;19.26;64.69
77323;BME280;66384;51.052;9.850;2023-06-26T05:43:21;98442.35;;;19.34;64.73
77323;BME280;66384;51.052;9.850;2023-06-26T05:45:58;98438.39;;;19.43;64.61
77323;BME280;66384;51.052;9.850;2023-06-26T05:48:30;98441.39;;;19.54;64.60
77323;BME280;66384;51.052;9.850;2023-06-26T05:51:03;98440.02;;;19.66;64.56
77323;BME280;66384;51.052;9.850;2023-06-26T05:53:36;98429.62;;;19.74;64.68
77323;BME280;66384;51.052;9.850;2023-06-26T05:56:09;98433.85;;;19.82;64.56
77323;BME280;66384;51.052;9.850;2023-06-26T05:58:41;98432.11;;;19.93;64.84
77323;BME280;66384;51.052;9.850;2023-06-26T06:01:14;98433.35;;;20.04;64.80
77323;BME280;66384;51.052;9.850;2023-06-26T06:03:45;98433.67;;;20.16;64.52
77323;BME280;66384;51.052;9.850;2023-06-26T06:06:18;98428.58;;;20.27;64.26
77323;BME280;66384;51.052;9.850;2023-06-26T06:08:50;98432.77;;;20.38;64.04
77323;BME280;66384;51.052;9.850;2023-06-26T06:11:21;98432.09;;;20.47;63.62
77323;BME280;66384;51.052;9.850;2023-06-26T06:13:53;98427.93;;;20.56;63.53
77323;BME280;66384;51.052;9.850;2023-06-26T06:16:25;98424.61;;;20.65;63.51
77323;BME280;66384;51.052;9.850;2023-06-26T06:18:59;98417.98;;;20.74;63.35
77323;BME280;66384;51.052;9.850;2023-06-26T06:21:30;98420.95;;;20.83;63.53
77323;BME280;66384;51.052;9.850;2023-06-26T06:24:02;98418.85;;;20.93;63.71
77323;BME280;66384;51.052;9.850;2023-06-26T06:26:34;98417.96;;;21.02;63.60
77323;BME280;66384;51.052;9.850;2023-06-26T06:29:05;98422.65;;;21.12;63.55
77323;BME280;66384;51.052;9.850;2023-06-26T06:31:37;98424.39;;;21.21;63.58
77323;BME280;66384;51.052;9.850;2023-06-26T06:34:09;98427.83;;;21.32;63.27
77323;BME280;66384;51.052;9.850;2023-06-26T06:36:40;98424.60;;;21.44;62.99
77323;BME280;66384;51.052;9.850;2023-06-26T06:39:12;98425.23;;;21.56;62.60
77323;BME280;66384;51.052;9.850;2023-06-26T06:41:44;98419.59;;;21.65;62.19
77323;BME280;66384;51.052;9.850;2023-06-26T06:44:16;98413.10;;;21.73;61.99
77323;BME280;66384;51.052;9.850;2023-06-26T06:46:47;98416.23;;;21.81;61.63
77323;BME280;66384;51.052;9.850;2023-06-26T06:49:19;98412.05;;;21.88;61.30
77323;BME280;66384;51.052;9.850;2023-06-26T06:51:51;98416.13;;;21.94;61.07
77323;BME280;66384;51.052;9.850;2023-06-26T06:54:25;98414.25;;;21.99;60.84
77323;BME280;66384;51.052;9.850;2023-06-26T06:56:57;98412.00;;;22.04;60.73
77323;BME280;66384;51.052;9.850;2023-06-26T06:59:29;98411.48;;;22.12;60.36
77323;BME280;66384;51.052;9.850;2023-06-26T07:02:00;98406.48;;;22.16;58.24
77323;BME280;66384;51.052;9.850;2023-06-26T07:04:32;98401.08;;;22.22;57.98
77323;BME280;66384;51.052;9.850;2023-06-26T07:07:04;98402.63;;;22.31;57.37
77323;BME280;66384;51.052;9.850;2023-06-26T07:09:35;98406.33;;;22.37;56.89
77323;BME280;66384;51.052;9.850;2023-06-26T07:12:08;98397.86;;;22.45;56.17
77323;BME280;66384;51.052;9.850;2023-06-26T07:14:40;98398.16;;;22.53;55.77
77323;BME280;66384;51.052;9.850;2023-06-26T07:17:12;98397.58;;;22.62;55.49
77323;BME280;66384;51.052;9.850;2023-06-26T07:19:44;98397.01;;;22.70;55.28
77323;BME280;66384;51.052;9.850;2023-06-26T07:22:16;98403.42;;;22.80;54.96
77323;BME280;66384;51.052;9.850;2023-06-26T07:24:50;98403.59;;;22.86;54.77
77323;BME280;66384;51.052;9.850;2023-06-26T07:27:22;98405.55;;;22.91;54.49
77323;BME280;66384;51.052;9.850;2023-06-26T07:29:54;98405.59;;;22.97;54.12
77323;BME280;66384;51.052;9.850;2023-06-26T07:32:25;98409.13;;;23.02;53.73
77323;BME280;66384;51.052;9.850;2023-06-26T07:34:57;98405.83;;;23.07;53.41
77323;BME280;66384;51.052;9.850;2023-06-26T07:37:29;98403.73;;;23.12;53.05
77323;BME280;66384;51.052;9.850;2023-06-26T07:40:00;98399.52;;;23.18;52.73
77323;BME280;66384;51.052;9.850;2023-06-26T07:42:32;98400.38;;;23.25;52.60
77323;BME280;66384;51.052;9.850;2023-06-26T07:45:05;98396.63;;;23.33;52.32
77323;BME280;66384;51.052;9.850;2023-06-26T07:47:41;98389.38;;;23.41;51.84
77323;BME280;66384;51.052;9.850;2023-06-26T07:50:12;98385.44;;;23.49;51.54
77323;BME280;66384;51.052;9.850;2023-06-26T07:52:49;98382.89;;;23.57;51.06
77323;BME280;66384;51.052;9.850;2023-06-26T07:55:22;98382.80;;;23.66;50.97
77323;BME280;66384;51.052;9.850;2023-06-26T07:57:54;98378.39;;;23.73;50.86
77323;BME280;66384;51.052;9.850;2023-06-26T08:00:26;98375.84;;;23.82;50.65
77323;BME280;66384;51.052;9.850;2023-06-26T08:02:57;98372.45;;;23.89;50.53
77323;BME280;66384;51.052;9.850;2023-06-26T08:05:29;98370.80;;;23.96;50.38
77323;BME280;66384;51.052;9.850;2023-06-26T08:08:01;98373.85;;;24.04;50.38
77323;BME280;66384;51.052;9.850;2023-06-26T08:10:33;98378.17;;;24.12;50.15
77323;BME280;66384;51.052;9.850;2023-06-26T08:13:05;98376.38;;;24.18;50.07
77323;BME280;66384;51.052;9.850;2023-06-26T08:15:36;98378.98;;;24.25;50.23
77323;BME280;66384;51.052;9.850;2023-06-26T08:18:09;98375.36;;;24.32;50.30
77323;BME280;66384;51.052;9.850;2023-06-26T08:20:40;98379.80;;;24.41;49.98
77323;BME280;66384;51.052;9.850;2023-06-26T08:23:12;98375.17;;;24.48;49.84
77323;BME280;66384;51.052;9.850;2023-06-26T08:25:44;98375.44;;;24.57;49.68
77323;BME280;66384;51.052;9.850;2023-06-26T08:28:17;98375.70;;;24.64;49.23
77323;BME280;66384;51.052;9.850;2023-06-26T08:30:49;98373.17;;;24.70;49.16
77323;BME280;66384;51.052;9.850;2023-06-26T08:33:21;98373.08;;;24.78;48.98
77323;BME280;66384;51.052;9.850;2023-06-26T08:35:52;98371.43;;;24.84;48.63
77323;BME280;66384;51.052;9.850;2023-06-26T08:38:24;98371.31;;;24.92;48.10
77323;BME280;66384;51.052;9.850;2023-06-26T08:40:55;98370.72;;;24.99;48.00
77323;BME280;66384;51.052;9.850;2023-06-26T08:43:27;98373.09;;;25.06;47.91
77323;BME280;66384;51.052;9.850;2023-06-26T08:45:59;98370.50;;;25.14;47.52
77323;BME280;66384;51.052;9.850;2023-06-26T08:48:33;98366.55;;;25.21;47.76
77323;BME280;66384;51.052;9.850;2023-06-26T08:51:11;98363.98;;;25.28;47.39
77323;BME280;66384;51.052;9.850;2023-06-26T08:53:48;98367.04;;;25.36;47.29
77323;BME280;66384;51.052;9.850;2023-06-26T08:56:22;98366.14;;;25.45;47.07
77323;BME280;66384;51.052;9.850;2023-06-26T08:58:55;98360.76;;;25.53;47.17
77323;BME280;66384;51.052;9.850;2023-06-26T09:01:27;98362.50;;;25.62;47.14
77323;BME280;66384;51.052;9.850;2023-06-26T09:03:59;98355.81;;;25.70;47.07
77323;BME280;66384;51.052;9.850;2023-06-26T09:06:31;98347.38;;;25.79;47.17
77323;BME280;66384;51.052;9.850;2023-06-26T09:09:02;98341.61;;;25.87;46.99
77323;BME280;66384;51.052;9.850;2023-06-26T09:11:34;98340.05;;;25.95;46.54
77323;BME280;66384;51.052;9.850;2023-06-26T09:14:06;98337.80;;;26.02;46.12
77323;BME280;66384;51.052;9.850;2023-06-26T09:16:42;98332.70;;;26.10;45.83
77323;BME280;66384;51.052;9.850;2023-06-26T09:19:14;98334.23;;;26.20;45.48
77323;BME280;66384;51.052;9.850;2023-06-26T09:21:50;98331.86;;;26.29;45.02
77323;BME280;66384;51.052;9.850;2023-06-26T09:24:23;98332.34;;;26.39;44.59
77323;BME280;66384;51.052;9.850;2023-06-26T09:26:55;98332.96;;;26.49;43.86
77323;BME280;66384;51.052;9.850;2023-06-26T09:29:27;98337.89;;;26.62;44.11
77323;BME280;66384;51.052;9.850;2023-06-26T09:32:00;98331.72;;;26.77;43.15
77323;BME280;66384;51.052;9.850;2023-06-26T09:34:35;98326.48;;;26.92;42.61
77323;BME280;66384;51.052;9.850;2023-06-26T09:37:07;98314.13;;;27.03;42.65
77323;BME280;66384;51.052;9.850;2023-06-26T09:39:38;98317.52;;;27.09;42.56
77323;BME280;66384;51.052;9.850;2023-06-26T09:42:10;98320.63;;;27.15;42.24
77323;BME280;66384;51.052;9.850;2023-06-26T09:44:46;98319.27;;;27.22;42.81
77323;BME280;66384;51.052;9.850;2023-06-26T09:47:20;98319.41;;;27.34;42.31
77323;BME280;66384;51.052;9.850;2023-06-26T09:49:53;98321.52;;;27.49;41.41
77323;BME280;66384;51.052;9.850;2023-06-26T09:52:27;98318.60;;;27.65;40.36
77323;BME280;66384;51.052;9.850;2023-06-26T09:55:12;98321.59;;;27.80;39.58
77323;BME280;66384;51.052;9.850;2023-06-26T09:57:44;98327.61;;;27.91;39.39
77323;BME280;66384;51.052;9.850;2023-06-26T10:00:18;98330.52;;;27.96;38.50
77323;BME280;66384;51.052;9.850;2023-06-26T10:02:49;98334.34;;;27.97;38.38
77323;BME280;66384;51.052;9.850;2023-06-26T10:05:21;98328.30;;;27.98;37.96
77323;BME280;66384;51.052;9.850;2023-06-26T10:07:53;98328.41;;;27.95;38.39
77323;BME280;66384;51.052;9.850;2023-06-26T10:10:26;98325.50;;;27.97;38.95
77323;BME280;66384;51.052;9.850;2023-06-26T10:13:00;98331.73;;;28.00;39.10
77323;BME280;66384;51.052;9.850;2023-06-26T10:15:35;98336.23;;;28.05;39.18
77323;BME280;66384;51.052;9.850;2023-06-26T10:18:08;98337.46;;;28.08;39.48
77323;BME280;66384;51.052;9.850;2023-06-26T10:20:41;98334.89;;;28.14;39.49
77323;BME280;66384;51.052;9.850;2023-06-26T10:23:15;98338.50;;;28.20;39.08
77323;BME280;66384;51.052;9.850;2023-06-26T10:25:51;98333.44;;;28.22;39.37
77323;BME280;66384;51.052;9.850;2023-06-26T10:28:24;98337.45;;;28.26;39.49
77323;BME280;66384;51.052;9.850;2023-06-26T10:30:58;98344.60;;;28.29;38.50
77323;BME280;66384;51.052;9.850;2023-06-26T10:33:32;98347.73;;;28.26;38.49
77323;BME280;66384;51.052;9.850;2023-06-26T10:36:18;98348.91;;;28.20;38.27
77323;BME280;66384;51.052;9.850;2023-06-26T10:38:54;98353.65;;;28.10;38.71
77323;BME280;66384;51.052;9.850;2023-06-26T10:41:25;98356.40;;;27.98;38.62
77323;BME280;66384;51.052;9.850;2023-06-26T10:44:10;98355.52;;;27.84;38.94
77323;BME280;66384;51.052;9.850;2023-06-26T10:46:52;98362.05;;;27.69;39.50
77323;BME280;66384;51.052;9.850;2023-06-26T10:49:27;98357.28;;;27.54;39.92
77323;BME280;66384;51.052;9.850;2023-06-26T10:52:02;98353.96;;;27.38;40.19
77323;BME280;66384;51.052;9.850;2023-06-26T10:54:34;98354.65;;;27.24;40.69
77323;BME280;66384;51.052;9.850;2023-06-26T10:57:08;98360.91;;;27.15;41.03
77323;BME280;66384;51.052;9.850;2023-06-26T10:59:41;98365.38;;;27.05;41.37
77323;BME280;66384;51.052;9.850;2023-06-26T11:02:13;98375.21;;;26.95;41.58
77323;BME280;66384;51.052;9.850;2023-06-26T11:04:47;98381.28;;;26.86;42.01
77323;BME280;66384;51.052;9.850;2023-06-26T11:07:23;98381.58;;;26.79;42.35
77323;BME280;66384;51.052;9.850;2023-06-26T11:10:00;98381.00;;;26.72;42.56
77323;BME280;66384;51.052;9.850;2023-06-26T11:12:41;98384.87;;;26.64;42.74
77323;BME280;66384;51.052;9.850;2023-06-26T11:15:15;98384.59;;;26.59;43.31
77323;BME280;66384;51.052;9.850;2023-06-26T11:17:47;98391.63;;;26.59;43.59
77323;BME280;66384;51.052;9.850;2023-06-26T11:20:20;98402.92;;;26.59;43.88
77323;BME280;66384;51.052;9.850;2023-06-26T11:22:53;98405.41;;;26.59;44.12
77323;BME280;66384;51.052;9.850;2023-06-26T11:25:26;98409.48;;;26.58;44.21
77323;BME280;66384;51.052;9.850;2023-06-26T11:27:58;98412.32;;;26.58;44.41
77323;BME280;66384;51.052;9.850;2023-06-26T11:30:29;98411.70;;;26.56;44.60
77323;BME280;66384;51.052;9.850;2023-06-26T11:33:08;98411.11;;;26.58;44.74
77323;BME280;66384;51.052;9.850;2023-06-26T11:35:40;98412.27;;;26.59;45.09
77323;BME280;66384;51.052;9.850;2023-06-26T11:38:12;98419.27;;;26.60;45.61
77323;BME280;66384;51.052;9.850;2023-06-26T11:40:43;98426.35;;;26.64;46.11
77323;BME280;66384;51.052;9.850;2023-06-26T11:43:15;98431.16;;;26.67;46.63
77323;BME280;66384;51.052;9.850;2023-06-26T11:45:47;98436.97;;;26.67;46.94
77323;BME280;66384;51.052;9.850;2023-06-26T11:48:20;98433.76;;;26.60;47.14
77323;BME280;66384;51.052;9.850;2023-06-26T11:50:53;98434.64;;;26.52;47.67
77323;BME280;66384;51.052;9.850;2023-06-26T11:53:25;98435.42;;;26.45;47.80
77323;BME280;66384;51.052;9.850;2023-06-26T11:55:57;98433.88;;;26.40;48.03
77323;BME280;66384;51.052;9.850;2023-06-26T11:58:29;98440.36;;;26.32;48.47
77323;BME280;66384;51.052;9.850;2023-06-26T12:01:00;98448.02;;;26.26;48.43
77323;BME280;66384;51.052;9.850;2023-06-26T12:03:33;98450.33;;;26.22;48.60
77323;BME280;66384;51.052;9.850;2023-06-26T12:06:05;98447.30;;;26.18;48.73
77323;BME280;66384;51.052;9.850;2023-06-26T12:08:37;98453.16;;;26.17;49.13
77323;BME280;66384;51.052;9.850;2023-06-26T12:11:08;98455.70;;;26.15;49.43
77323;BME280;66384;51.052;9.850;2023-06-26T12:13:40;98458.69;;;26.16;49.49
77323;BME280;66384;51.052;9.850;2023-06-26T12:16:12;98453.09;;;26.19;49.74
77323;BME280;66384;51.052;9.850;2023-06-26T12:18:43;98456.10;;;26.22;50.18
77323;BME280;66384;51.052;9.850;2023-06-26T12:24:16;98460.34;;;26.40;49.97
77323;BME280;66384;51.052;9.850;2023-06-26T12:26:51;98457.26;;;26.46;49.21
77323;BME280;66384;51.052;9.850;2023-06-26T12:29:31;98454.11;;;26.54;49.49
77323;BME280;66384;51.052;9.850;2023-06-26T12:32:04;98455.68;;;26.59;49.45
77323;BME280;66384;51.052;9.850;2023-06-26T12:34:37;98460.17;;;26.65;49.47
77323;BME280;66384;51.052;9.850;2023-06-26T12:37:11;98468.05;;;26.71;48.54
77323;BME280;66384;51.052;9.850;2023-06-26T12:39:51;98459.89;;;26.67;48.00
77323;BME280;66384;51.052;9.850;2023-06-26T12:42:24;98453.17;;;26.68;48.00
77323;BME280;66384;51.052;9.850;2023-06-26T12:44:56;98457.73;;;26.72;47.48
77323;BME280;66384;51.052;9.850;2023-06-26T12:47:29;98459.82;;;26.77;47.38
77323;BME280;66384;51.052;9.850;2023-06-26T12:50:06;98459.08;;;26.87;47.24
77323;BME280;66384;51.052;9.850;2023-06-26T12:52:39;98458.14;;;26.95;46.72
77323;BME280;66384;51.052;9.850;2023-06-26T12:55:11;98462.75;;;27.07;46.60
77323;BME280;66384;51.052;9.850;2023-06-26T12:57:42;98462.16;;;27.20;46.71
77323;BME280;66384;51.052;9.850;2023-06-26T13:00:16;98462.59;;;27.35;46.50
77323;BME280;66384;51.052;9.850;2023-06-26T13:02:48;98467.61;;;27.48;46.23
77323;BME280;66384;51.052;9.850;2023-06-26T13:05:20;98469.98;;;27.62;46.16
77323;BME280;66384;51.052;9.850;2023-06-26T13:07:52;98474.48;;;27.80;46.00
77323;BME280;66384;51.052;9.850;2023-06-26T13:10:24;98473.20;;;27.92;45.43
77323;BME280;66384;51.052;9.850;2023-06-26T13:12:57;98473.77;;;27.95;45.15
77323;BME280;66384;51.052;9.850;2023-06-26T13:15:29;98470.05;;;27.95;44.91
77323;BME280;66384;51.052;9.850;2023-06-26T13:18:00;98468.14;;;27.90;44.83
77323;BME280;66384;51.052;9.850;2023-06-26T13:20:32;98473.00;;;27.85;44.62
77323;BME280;66384;51.052;9.850;2023-06-26T13:23:03;98471.98;;;27.81;44.53
77323;BME280;66384;51.052;9.850;2023-06-26T13:25:37;98471.02;;;27.82;44.61
77323;BME280;66384;51.052;9.850;2023-06-26T13:28:08;98475.09;;;27.89;45.09
77323;BME280;66384;51.052;9.850;2023-06-26T13:30:40;98472.90;;;27.95;44.78